sensor_id;sensor_type;location;lat;lon;timestamp;P1;durP1;ratioP1;P2;durP2;ratioP2
3683;SDS011;1858;48.716;9.648;2022-11-15T00:01:09;2.87;;;1.43;;
3683;SDS011;1858;48.716;9.648;2022-11-15T00:03:39;3.00;;;1.23;;
3683;SDS011;1858;48.716;9.648;2022-11-15T00:06:08;3.20;;;1.20;;
3683;SDS011;1858;48.716;9.648;2022-11-15T00:08:37;1.80;;;0.80;;
3683;SDS011;1858;48.716;9.648;2022-11-15T00:11:05;2.80;;;1.10;;
3683;SDS011;1858;48.716;9.648;2022-11-15T00:13:33;4.50;;;1.10;;
3683;SDS011;1858;48.716;9.648;2022-11-15T00:16:02;2.30;;;1.13;;
3683;SDS011;1858;48.716;9.648;2022-11-15T00:18:30;2.40;;;0.97;;
3683;SDS011;1858;48.716;9.648;2022-11-15T00:21:06;11.90;;;1.53;;
3683;SDS011;1858;48.716;9.648;2022-11-15T00:23:54;2.07;;;0.90;;
3683;SDS011;1858;48.716;9.648;2022-11-15T00:26:22;3.17;;;1.50;;
3683;SDS011;1858;48.716;9.648;2022-11-15T00:28:51;3.40;;;1.37;;
3683;SDS011;1858;48.716;9.648;2022-11-15T00:31:20;2.60;;;0.90;;
3683;SDS011;1858;48.716;9.648;2022-11-15T00:33:48;2.13;;;0.90;;
3683;SDS011;1858;48.716;9.648;2022-11-15T00:36:16;2.50;;;0.90;;
3683;SDS011;1858;48.716;9.648;2022-11-15T00:38:45;2.93;;;0.67;;
3683;SDS011;1858;48.716;9.648;2022-11-15T00:41:13;2.63;;;1.40;;
3683;SDS011;1858;48.716;9.648;2022-11-15T00:43:42;3.13;;;1.00;;
3683;SDS011;1858;48.716;9.648;2022-11-15T00:46:10;1.53;;;0.70;;
3683;SDS011;1858;48.716;9.648;2022-11-15T00:48:39;1.50;;;0.70;;
3683;SDS011;1858;48.716;9.648;2022-11-15T00:51:07;2.33;;;0.80;;
3683;SDS011;1858;48.716;9.648;2022-11-15T00:53:35;1.93;;;0.70;;
3683;SDS011;1858;48.716;9.648;2022-11-15T00:56:04;2.10;;;1.00;;
3683;SDS011;1858;48.716;9.648;2022-11-15T00:58:32;1.67;;;0.77;;
3683;SDS011;1858;48.716;9.648;2022-11-15T01:03:48;4.70;;;2.03;;
3683;SDS011;1858;48.716;9.648;2022-11-15T01:06:17;4.40;;;0.90;;
3683;SDS011;1858;48.716;9.648;2022-11-15T01:08:45;1.70;;;0.83;;
3683;SDS011;1858;48.716;9.648;2022-11-15T01:11:13;2.13;;;1.37;;
3683;SDS011;1858;48.716;9.648;2022-11-15T01:13:42;2.03;;;0.70;;
3683;SDS011;1858;48.716;9.648;2022-11-15T01:16:12;2.00;;;0.90;;
3683;SDS011;1858;48.716;9.648;2022-11-15T01:18:43;1.80;;;0.70;;
3683;SDS011;1858;48.716;9.648;2022-11-15T01:21:13;2.63;;;0.90;;
3683;SDS011;1858;48.716;9.648;2022-11-15T01:23:44;2.50;;;1.27;;
3683;SDS011;1858;48.716;9.648;2022-11-15T01:26:13;4.87;;;1.00;;
3683;SDS011;1858;48.716;9.648;2022-11-15T01:28:42;1.27;;;0.57;;
3683;SDS011;1858;48.716;9.648;2022-11-15T01:31:18;3.33;;;1.00;;
3683;SDS011;1858;48.716;9.648;2022-11-15T01:33:42;2.30;;;1.00;;
3683;SDS011;1858;48.716;9.648;2022-11-15T01:36:12;1.90;;;0.83;;
3683;SDS011;1858;48.716;9.648;2022-11-15T01:38:42;2.63;;;2.07;;
3683;SDS011;1858;48.716;9.648;2022-11-15T01:41:17;2.23;;;0.80;;
3683;SDS011;1858;48.716;9.648;2022-11-15T01:43:55;3.33;;;1.50;;
3683;SDS011;1858;48.716;9.648;2022-11-15T01:46:37;3.30;;;1.17;;
3683;SDS011;1858;48.716;9.648;2022-11-15T01:49:04;2.60;;;0.80;;
3683;SDS011;1858;48.716;9.648;2022-11-15T01:51:33;2.37;;;1.63;;
3683;SDS011;1858;48.716;9.648;2022-11-15T01:54:04;2.43;;;1.07;;
3683;SDS011;1858;48.716;9.648;2022-11-15T01:56:36;4.83;;;1.23;;
3683;SDS011;1858;48.716;9.648;2022-11-15T01:59:05;3.53;;;1.47;;
3683;SDS011;1858;48.716;9.648;2022-11-15T02:04:27;1.60;;;0.90;;
3683;SDS011;1858;48.716;9.648;2022-11-15T02:07:16;2.60;;;0.97;;
3683;SDS011;1858;48.716;9.648;2022-11-15T02:09:46;2.10;;;0.93;;
3683;SDS011;1858;48.716;9.648;2022-11-15T02:12:16;3.10;;;0.80;;
3683;SDS011;1858;48.716;9.648;2022-11-15T02:14:50;1.63;;;0.73;;
3683;SDS011;1858;48.716;9.648;2022-11-15T02:17:38;5.40;;;0.90;;
3683;SDS011;1858;48.716;9.648;2022-11-15T02:26:34;5.50;;;1.40;;
3683;SDS011;1858;48.716;9.648;2022-11-15T02:32:03;3.77;;;1.53;;
3683;SDS011;1858;48.716;9.648;2022-11-15T02:34:43;1.67;;;0.90;;
3683;SDS011;1858;48.716;9.648;2022-11-15T02:43:07;6.50;;;1.27;;
3683;SDS011;1858;48.716;9.648;2022-11-15T02:46:09;2.13;;;1.23;;
3683;SDS011;1858;48.716;9.648;2022-11-15T02:48:38;1.97;;;0.93;;
3683;SDS011;1858;48.716;9.648;2022-11-15T02:53:56;1.77;;;0.70;;
3683;SDS011;1858;48.716;9.648;2022-11-15T02:56:25;1.67;;;1.00;;
3683;SDS011;1858;48.716;9.648;2022-11-15T03:10:14;1.70;;;1.00;;
3683;SDS011;1858;48.716;9.648;2022-11-15T03:13:11;2.17;;;0.83;;
3683;SDS011;1858;48.716;9.648;2022-11-15T03:15:52;3.50;;;1.17;;
3683;SDS011;1858;48.716;9.648;2022-11-15T03:18:28;3.13;;;0.87;;
3683;SDS011;1858;48.716;9.648;2022-11-15T03:21:02;1.63;;;0.70;;
3683;SDS011;1858;48.716;9.648;2022-11-15T03:23:32;5.47;;;0.90;;
3683;SDS011;1858;48.716;9.648;2022-11-15T03:26:03;2.30;;;1.07;;
3683;SDS011;1858;48.716;9.648;2022-11-15T03:28:36;1.43;;;0.60;;
3683;SDS011;1858;48.716;9.648;2022-11-15T03:31:23;2.00;;;0.87;;
3683;SDS011;1858;48.716;9.648;2022-11-15T03:39:51;5.20;;;1.20;;
3683;SDS011;1858;48.716;9.648;2022-11-15T03:42:25;1.50;;;0.80;;
3683;SDS011;1858;48.716;9.648;2022-11-15T03:47:42;4.63;;;1.90;;
3683;SDS011;1858;48.716;9.648;2022-11-15T03:50:29;2.17;;;1.13;;
3683;SDS011;1858;48.716;9.648;2022-11-15T03:52:59;2.00;;;1.00;;
3683;SDS011;1858;48.716;9.648;2022-11-15T03:55:27;2.30;;;0.87;;
3683;SDS011;1858;48.716;9.648;2022-11-15T03:57:58;1.77;;;0.87;;
3683;SDS011;1858;48.716;9.648;2022-11-15T04:00:27;1.40;;;0.70;;
3683;SDS011;1858;48.716;9.648;2022-11-15T04:02:56;4.10;;;1.40;;
3683;SDS011;1858;48.716;9.648;2022-11-15T04:05:25;2.47;;;1.50;;
3683;SDS011;1858;48.716;9.648;2022-11-15T04:07:53;1.70;;;1.03;;
3683;SDS011;1858;48.716;9.648;2022-11-15T04:10:21;3.40;;;0.97;;
3683;SDS011;1858;48.716;9.648;2022-11-15T04:12:50;3.30;;;1.63;;
3683;SDS011;1858;48.716;9.648;2022-11-15T04:18:00;1.80;;;1.00;;
3683;SDS011;1858;48.716;9.648;2022-11-15T04:20:29;1.50;;;0.97;;
3683;SDS011;1858;48.716;9.648;2022-11-15T04:23:20;2.23;;;1.00;;
3683;SDS011;1858;48.716;9.648;2022-11-15T04:26:27;3.30;;;1.17;;
3683;SDS011;1858;48.716;9.648;2022-11-15T04:28:55;2.27;;;1.10;;
3683;SDS011;1858;48.716;9.648;2022-11-15T04:34:30;3.77;;;1.10;;
3683;SDS011;1858;48.716;9.648;2022-11-15T04:36:58;2.50;;;0.93;;
3683;SDS011;1858;48.716;9.648;2022-11-15T04:39:42;1.97;;;0.80;;
3683;SDS011;1858;48.716;9.648;2022-11-15T04:42:31;2.00;;;1.03;;
3683;SDS011;1858;48.716;9.648;2022-11-15T04:44:59;2.60;;;0.70;;
3683;SDS011;1858;48.716;9.648;2022-11-15T04:47:27;3.57;;;0.97;;
3683;SDS011;1858;48.716;9.648;2022-11-15T04:49:56;6.33;;;0.93;;
3683;SDS011;1858;48.716;9.648;2022-11-15T04:52:24;1.90;;;1.13;;
3683;SDS011;1858;48.716;9.648;2022-11-15T04:54:52;1.47;;;0.77;;
3683;SDS011;1858;48.716;9.648;2022-11-15T04:57:21;3.67;;;1.20;;
3683;SDS011;1858;48.716;9.648;2022-11-15T04:59:49;2.87;;;1.57;;
3683;SDS011;1858;48.716;9.648;2022-11-15T05:02:17;1.50;;;0.80;;
3683;SDS011;1858;48.716;9.648;2022-11-15T05:04:46;1.80;;;0.87;;
3683;SDS011;1858;48.716;9.648;2022-11-15T05:07:14;1.67;;;0.83;;
3683;SDS011;1858;48.716;9.648;2022-11-15T05:09:43;3.03;;;1.30;;
3683;SDS011;1858;48.716;9.648;2022-11-15T05:12:11;1.70;;;0.97;;
3683;SDS011;1858;48.716;9.648;2022-11-15T05:14:39;2.57;;;1.33;;
3683;SDS011;1858;48.716;9.648;2022-11-15T05:19:55;2.40;;;1.50;;
3683;SDS011;1858;48.716;9.648;2022-11-15T05:22:24;4.10;;;1.67;;
3683;SDS011;1858;48.716;9.648;2022-11-15T05:24:52;2.63;;;1.17;;
3683;SDS011;1858;48.716;9.648;2022-11-15T05:27:20;1.80;;;1.00;;
3683;SDS011;1858;48.716;9.648;2022-11-15T05:32:37;4.43;;;1.87;;
3683;SDS011;1858;48.716;9.648;2022-11-15T05:35:05;4.17;;;1.87;;
3683;SDS011;1858;48.716;9.648;2022-11-15T05:37:36;2.70;;;1.57;;
3683;SDS011;1858;48.716;9.648;2022-11-15T05:42:53;2.90;;;1.40;;
3683;SDS011;1858;48.716;9.648;2022-11-15T05:45:21;7.30;;;1.90;;
3683;SDS011;1858;48.716;9.648;2022-11-15T05:47:50;3.70;;;1.10;;
3683;SDS011;1858;48.716;9.648;2022-11-15T05:53:09;2.57;;;1.40;;
3683;SDS011;1858;48.716;9.648;2022-11-15T05:58:27;5.77;;;2.67;;
3683;SDS011;1858;48.716;9.648;2022-11-15T06:00:55;4.37;;;2.20;;
3683;SDS011;1858;48.716;9.648;2022-11-15T06:03:24;3.00;;;1.60;;
3683;SDS011;1858;48.716;9.648;2022-11-15T06:05:52;3.43;;;1.90;;
3683;SDS011;1858;48.716;9.648;2022-11-15T06:08:20;3.87;;;1.80;;
3683;SDS011;1858;48.716;9.648;2022-11-15T06:10:49;3.60;;;2.27;;
3683;SDS011;1858;48.716;9.648;2022-11-15T06:13:17;5.30;;;2.40;;
3683;SDS011;1858;48.716;9.648;2022-11-15T06:15:45;4.67;;;2.13;;
3683;SDS011;1858;48.716;9.648;2022-11-15T06:18:14;7.13;;;2.80;;
3683;SDS011;1858;48.716;9.648;2022-11-15T06:20:42;5.40;;;2.60;;
3683;SDS011;1858;48.716;9.648;2022-11-15T06:23:11;5.20;;;1.80;;
3683;SDS011;1858;48.716;9.648;2022-11-15T06:25:40;5.63;;;2.30;;
3683;SDS011;1858;48.716;9.648;2022-11-15T06:28:08;5.20;;;2.37;;
3683;SDS011;1858;48.716;9.648;2022-11-15T06:30:36;3.37;;;2.07;;
3683;SDS011;1858;48.716;9.648;2022-11-15T06:33:05;5.43;;;3.00;;
3683;SDS011;1858;48.716;9.648;2022-11-15T06:35:35;7.10;;;2.70;;
3683;SDS011;1858;48.716;9.648;2022-11-15T06:38:04;3.80;;;2.23;;
3683;SDS011;1858;48.716;9.648;2022-11-15T06:40:53;4.20;;;1.90;;
3683;SDS011;1858;48.716;9.648;2022-11-15T06:43:21;5.27;;;3.47;;
3683;SDS011;1858;48.716;9.648;2022-11-15T06:48:38;4.93;;;2.70;;
3683;SDS011;1858;48.716;9.648;2022-11-15T06:51:07;3.73;;;2.20;;
3683;SDS011;1858;48.716;9.648;2022-11-15T06:53:35;3.60;;;2.37;;
3683;SDS011;1858;48.716;9.648;2022-11-15T06:56:04;3.20;;;1.73;;
3683;SDS011;1858;48.716;9.648;2022-11-15T07:01:41;2.93;;;1.90;;
3683;SDS011;1858;48.716;9.648;2022-11-15T07:04:09;4.00;;;2.40;;
3683;SDS011;1858;48.716;9.648;2022-11-15T07:06:37;3.33;;;1.80;;
3683;SDS011;1858;48.716;9.648;2022-11-15T07:09:06;4.37;;;2.30;;
3683;SDS011;1858;48.716;9.648;2022-11-15T07:11:34;4.70;;;2.00;;
3683;SDS011;1858;48.716;9.648;2022-11-15T07:14:03;6.90;;;2.43;;
3683;SDS011;1858;48.716;9.648;2022-11-15T07:16:31;3.67;;;2.50;;
3683;SDS011;1858;48.716;9.648;2022-11-15T07:19:00;4.13;;;2.30;;
3683;SDS011;1858;48.716;9.648;2022-11-15T07:21:28;4.67;;;1.77;;
3683;SDS011;1858;48.716;9.648;2022-11-15T07:23:57;3.10;;;1.60;;
3683;SDS011;1858;48.716;9.648;2022-11-15T07:26:25;4.80;;;2.10;;
3683;SDS011;1858;48.716;9.648;2022-11-15T07:28:53;6.63;;;2.70;;
3683;SDS011;1858;48.716;9.648;2022-11-15T07:31:22;4.53;;;2.13;;
3683;SDS011;1858;48.716;9.648;2022-11-15T07:33:50;2.37;;;1.50;;
3683;SDS011;1858;48.716;9.648;2022-11-15T07:36:18;2.70;;;1.57;;
3683;SDS011;1858;48.716;9.648;2022-11-15T07:38:47;4.40;;;2.40;;
3683;SDS011;1858;48.716;9.648;2022-11-15T07:41:15;4.33;;;2.13;;
3683;SDS011;1858;48.716;9.648;2022-11-15T07:46:31;7.27;;;2.07;;
3683;SDS011;1858;48.716;9.648;2022-11-15T07:49:00;4.20;;;1.90;;
3683;SDS011;1858;48.716;9.648;2022-11-15T07:51:28;6.53;;;3.60;;
3683;SDS011;1858;48.716;9.648;2022-11-15T07:53:57;4.10;;;1.83;;
3683;SDS011;1858;48.716;9.648;2022-11-15T07:56:25;6.73;;;2.47;;
3683;SDS011;1858;48.716;9.648;2022-11-15T07:58:54;6.30;;;2.90;;
3683;SDS011;1858;48.716;9.648;2022-11-15T08:01:22;6.00;;;3.27;;
3683;SDS011;1858;48.716;9.648;2022-11-15T08:03:50;3.70;;;2.10;;
3683;SDS011;1858;48.716;9.648;2022-11-15T08:06:19;3.07;;;1.97;;
3683;SDS011;1858;48.716;9.648;2022-11-15T08:08:49;5.60;;;2.10;;
3683;SDS011;1858;48.716;9.648;2022-11-15T08:11:17;5.07;;;2.47;;
3683;SDS011;1858;48.716;9.648;2022-11-15T08:13:45;3.97;;;2.23;;
3683;SDS011;1858;48.716;9.648;2022-11-15T08:16:14;6.37;;;3.03;;
3683;SDS011;1858;48.716;9.648;2022-11-15T08:18:42;3.40;;;1.87;;
3683;SDS011;1858;48.716;9.648;2022-11-15T08:21:11;4.43;;;1.73;;
3683;SDS011;1858;48.716;9.648;2022-11-15T08:23:42;4.00;;;1.97;;
3683;SDS011;1858;48.716;9.648;2022-11-15T08:26:11;3.27;;;2.37;;
3683;SDS011;1858;48.716;9.648;2022-11-15T08:28:39;3.60;;;2.47;;
3683;SDS011;1858;48.716;9.648;2022-11-15T08:31:15;3.13;;;1.93;;
3683;SDS011;1858;48.716;9.648;2022-11-15T08:33:45;4.97;;;1.80;;
3683;SDS011;1858;48.716;9.648;2022-11-15T08:36:15;9.23;;;3.00;;
3683;SDS011;1858;48.716;9.648;2022-11-15T08:38:44;3.50;;;1.87;;
3683;SDS011;1858;48.716;9.648;2022-11-15T08:41:16;3.83;;;2.07;;
3683;SDS011;1858;48.716;9.648;2022-11-15T08:43:56;3.90;;;2.00;;
3683;SDS011;1858;48.716;9.648;2022-11-15T08:49:05;4.33;;;2.13;;
3683;SDS011;1858;48.716;9.648;2022-11-15T08:51:34;3.33;;;1.17;;
3683;SDS011;1858;48.716;9.648;2022-11-15T08:54:02;6.37;;;2.00;;
3683;SDS011;1858;48.716;9.648;2022-11-15T08:56:30;2.90;;;1.60;;
3683;SDS011;1858;48.716;9.648;2022-11-15T08:58:59;8.03;;;3.10;;
3683;SDS011;1858;48.716;9.648;2022-11-15T09:01:27;5.60;;;2.40;;
3683;SDS011;1858;48.716;9.648;2022-11-15T09:03:56;3.00;;;1.90;;
3683;SDS011;1858;48.716;9.648;2022-11-15T09:06:24;3.00;;;2.00;;
3683;SDS011;1858;48.716;9.648;2022-11-15T09:08:52;3.53;;;1.90;;
3683;SDS011;1858;48.716;9.648;2022-11-15T09:11:21;3.37;;;2.00;;
3683;SDS011;1858;48.716;9.648;2022-11-15T09:13:50;3.17;;;1.97;;
3683;SDS011;1858;48.716;9.648;2022-11-15T09:16:18;2.83;;;1.60;;
3683;SDS011;1858;48.716;9.648;2022-11-15T09:18:46;4.00;;;1.50;;
3683;SDS011;1858;48.716;9.648;2022-11-15T09:21:15;3.10;;;1.83;;
3683;SDS011;1858;48.716;9.648;2022-11-15T09:23:43;3.67;;;1.40;;
3683;SDS011;1858;48.716;9.648;2022-11-15T09:26:12;2.37;;;1.40;;
3683;SDS011;1858;48.716;9.648;2022-11-15T09:28:41;5.47;;;1.50;;
3683;SDS011;1858;48.716;9.648;2022-11-15T09:31:09;3.70;;;1.67;;
3683;SDS011;1858;48.716;9.648;2022-11-15T09:33:38;3.20;;;1.50;;
3683;SDS011;1858;48.716;9.648;2022-11-15T09:36:06;2.70;;;1.40;;
3683;SDS011;1858;48.716;9.648;2022-11-15T09:38:36;3.60;;;1.43;;
3683;SDS011;1858;48.716;9.648;2022-11-15T09:51:59;4.23;;;2.07;;
3683;SDS011;1858;48.716;9.648;2022-11-15T09:54:32;4.37;;;3.03;;
3683;SDS011;1858;48.716;9.648;2022-11-15T09:58:03;4.73;;;1.90;;
3683;SDS011;1858;48.716;9.648;2022-11-15T10:02:57;3.50;;;1.50;;
3683;SDS011;1858;48.716;9.648;2022-11-15T10:05:27;2.80;;;1.47;;
3683;SDS011;1858;48.716;9.648;2022-11-15T10:08:05;5.13;;;1.80;;
3683;SDS011;1858;48.716;9.648;2022-11-15T10:10:57;4.03;;;1.47;;
3683;SDS011;1858;48.716;9.648;2022-11-15T10:13:25;2.77;;;1.30;;
3683;SDS011;1858;48.716;9.648;2022-11-15T10:16:02;5.30;;;1.67;;
3683;SDS011;1858;48.716;9.648;2022-11-15T10:18:30;3.40;;;1.60;;
3683;SDS011;1858;48.716;9.648;2022-11-15T10:20:59;2.40;;;1.13;;
3683;SDS011;1858;48.716;9.648;2022-11-15T10:23:29;2.70;;;1.33;;
3683;SDS011;1858;48.716;9.648;2022-11-15T10:26:00;4.50;;;2.10;;
3683;SDS011;1858;48.716;9.648;2022-11-15T10:28:30;4.03;;;1.30;;
3683;SDS011;1858;48.716;9.648;2022-11-15T10:30:59;2.80;;;1.40;;
3683;SDS011;1858;48.716;9.648;2022-11-15T10:36:20;3.90;;;1.30;;
3683;SDS011;1858;48.716;9.648;2022-11-15T10:38:54;8.13;;;1.97;;
3683;SDS011;1858;48.716;9.648;2022-11-15T10:49:52;4.83;;;2.03;;
3683;SDS011;1858;48.716;9.648;2022-11-15T10:54:59;3.50;;;1.83;;
3683;SDS011;1858;48.716;9.648;2022-11-15T10:57:26;3.87;;;1.80;;
3683;SDS011;1858;48.716;9.648;2022-11-15T10:59:57;5.00;;;2.30;;
3683;SDS011;1858;48.716;9.648;2022-11-15T11:02:56;4.93;;;1.73;;
3683;SDS011;1858;48.716;9.648;2022-11-15T11:05:30;2.87;;;1.80;;
3683;SDS011;1858;48.716;9.648;2022-11-15T11:08:02;2.67;;;1.50;;
3683;SDS011;1858;48.716;9.648;2022-11-15T11:13:38;4.50;;;1.70;;
3683;SDS011;1858;48.716;9.648;2022-11-15T11:16:42;3.27;;;1.60;;
3683;SDS011;1858;48.716;9.648;2022-11-15T11:19:13;6.50;;;1.50;;
3683;SDS011;1858;48.716;9.648;2022-11-15T11:30:06;2.07;;;1.20;;
3683;SDS011;1858;48.716;9.648;2022-11-15T11:32:50;3.13;;;1.10;;
3683;SDS011;1858;48.716;9.648;2022-11-15T11:35:48;5.80;;;2.03;;
3683;SDS011;1858;48.716;9.648;2022-11-15T11:38:32;2.50;;;1.10;;
3683;SDS011;1858;48.716;9.648;2022-11-15T11:43:57;2.73;;;1.37;;
3683;SDS011;1858;48.716;9.648;2022-11-15T11:46:32;2.83;;;1.10;;
3683;SDS011;1858;48.716;9.648;2022-11-15T11:49:24;5.70;;;2.13;;
3683;SDS011;1858;48.716;9.648;2022-11-15T11:51:54;4.17;;;1.80;;
3683;SDS011;1858;48.716;9.648;2022-11-15T11:54:32;5.90;;;1.77;;
3683;SDS011;1858;48.716;9.648;2022-11-15T11:57:07;7.03;;;1.57;;
3683;SDS011;1858;48.716;9.648;2022-11-15T11:59:48;5.70;;;2.33;;
3683;SDS011;1858;48.716;9.648;2022-11-15T12:02:26;2.53;;;1.20;;
3683;SDS011;1858;48.716;9.648;2022-11-15T12:05:03;3.87;;;1.60;;
3683;SDS011;1858;48.716;9.648;2022-11-15T12:07:47;3.03;;;1.17;;
3683;SDS011;1858;48.716;9.648;2022-11-15T12:10:22;3.53;;;1.60;;
3683;SDS011;1858;48.716;9.648;2022-11-15T12:13:10;6.07;;;1.43;;
3683;SDS011;1858;48.716;9.648;2022-11-15T12:18:30;4.70;;;1.70;;
3683;SDS011;1858;48.716;9.648;2022-11-15T12:21:01;3.73;;;1.90;;
3683;SDS011;1858;48.716;9.648;2022-11-15T12:26:23;2.97;;;1.63;;
3683;SDS011;1858;48.716;9.648;2022-11-15T12:31:48;4.23;;;2.43;;
3683;SDS011;1858;48.716;9.648;2022-11-15T12:40:21;2.80;;;1.33;;
3683;SDS011;1858;48.716;9.648;2022-11-15T12:46:02;2.80;;;1.40;;
3683;SDS011;1858;48.716;9.648;2022-11-15T12:48:54;1.70;;;0.80;;
3683;SDS011;1858;48.716;9.648;2022-11-15T13:00:00;1.77;;;0.60;;
3683;SDS011;1858;48.716;9.648;2022-11-15T13:02:49;1.40;;;0.40;;
3683;SDS011;1858;48.716;9.648;2022-11-15T13:07:56;2.40;;;0.97;;
3683;SDS011;1858;48.716;9.648;2022-11-15T13:15:52;3.73;;;1.00;;
3683;SDS011;1858;48.716;9.648;2022-11-15T13:20:54;3.50;;;1.03;;
3683;SDS011;1858;48.716;9.648;2022-11-15T13:23:23;1.93;;;0.90;;
3683;SDS011;1858;48.716;9.648;2022-11-15T13:25:54;2.43;;;0.70;;
3683;SDS011;1858;48.716;9.648;2022-11-15T13:28:43;1.97;;;0.70;;
3683;SDS011;1858;48.716;9.648;2022-11-15T13:31:25;18.27;;;1.07;;
3683;SDS011;1858;48.716;9.648;2022-11-15T13:39:43;2.00;;;0.73;;
3683;SDS011;1858;48.716;9.648;2022-11-15T13:42:15;2.57;;;1.17;;
3683;SDS011;1858;48.716;9.648;2022-11-15T13:45:12;1.80;;;0.70;;
3683;SDS011;1858;48.716;9.648;2022-11-15T13:47:38;3.40;;;1.07;;
3683;SDS011;1858;48.716;9.648;2022-11-15T13:52:57;2.30;;;0.87;;
3683;SDS011;1858;48.716;9.648;2022-11-15T13:55:27;2.77;;;1.17;;
3683;SDS011;1858;48.716;9.648;2022-11-15T13:58:01;3.50;;;1.50;;
3683;SDS011;1858;48.716;9.648;2022-11-15T14:03:39;2.87;;;1.43;;
3683;SDS011;1858;48.716;9.648;2022-11-15T14:06:04;3.03;;;1.40;;
3683;SDS011;1858;48.716;9.648;2022-11-15T14:08:34;2.90;;;1.30;;
3683;SDS011;1858;48.716;9.648;2022-11-15T14:11:07;2.60;;;1.17;;
3683;SDS011;1858;48.716;9.648;2022-11-15T14:13:38;2.37;;;1.63;;
3683;SDS011;1858;48.716;9.648;2022-11-15T14:18:49;2.73;;;1.30;;
3683;SDS011;1858;48.716;9.648;2022-11-15T14:21:20;2.67;;;1.23;;
3683;SDS011;1858;48.716;9.648;2022-11-15T14:23:48;5.03;;;1.20;;
3683;SDS011;1858;48.716;9.648;2022-11-15T14:32:20;4.90;;;1.07;;
3683;SDS011;1858;48.716;9.648;2022-11-15T14:34:47;3.20;;;0.87;;
3683;SDS011;1858;48.716;9.648;2022-11-15T14:37:24;1.60;;;0.80;;
3683;SDS011;1858;48.716;9.648;2022-11-15T14:40:16;2.27;;;1.00;;
3683;SDS011;1858;48.716;9.648;2022-11-15T14:42:45;3.43;;;1.20;;
3683;SDS011;1858;48.716;9.648;2022-11-15T14:45:16;2.30;;;1.13;;
3683;SDS011;1858;48.716;9.648;2022-11-15T14:47:54;3.10;;;1.00;;
3683;SDS011;1858;48.716;9.648;2022-11-15T14:50:23;3.00;;;0.90;;
3683;SDS011;1858;48.716;9.648;2022-11-15T14:52:51;3.57;;;1.00;;
3683;SDS011;1858;48.716;9.648;2022-11-15T14:58:06;3.10;;;1.37;;
3683;SDS011;1858;48.716;9.648;2022-11-15T15:00:36;3.80;;;1.07;;
3683;SDS011;1858;48.716;9.648;2022-11-15T15:03:08;2.17;;;0.90;;
3683;SDS011;1858;48.716;9.648;2022-11-15T15:05:43;1.87;;;0.83;;
3683;SDS011;1858;48.716;9.648;2022-11-15T15:08:11;1.70;;;0.63;;
3683;SDS011;1858;48.716;9.648;2022-11-15T15:10:41;3.00;;;0.73;;
3683;SDS011;1858;48.716;9.648;2022-11-15T15:13:28;3.47;;;1.93;;
3683;SDS011;1858;48.716;9.648;2022-11-15T15:15:56;26.40;;;6.67;;
3683;SDS011;1858;48.716;9.648;2022-11-15T15:18:26;6.87;;;2.50;;
3683;SDS011;1858;48.716;9.648;2022-11-15T15:20:55;3.73;;;1.33;;
3683;SDS011;1858;48.716;9.648;2022-11-15T15:23:27;3.77;;;1.77;;
3683;SDS011;1858;48.716;9.648;2022-11-15T15:25:57;6.23;;;1.43;;
3683;SDS011;1858;48.716;9.648;2022-11-15T15:28:25;7.40;;;1.90;;
3683;SDS011;1858;48.716;9.648;2022-11-15T15:30:54;2.77;;;1.17;;
3683;SDS011;1858;48.716;9.648;2022-11-15T15:33:22;2.50;;;1.03;;
3683;SDS011;1858;48.716;9.648;2022-11-15T15:35:51;4.03;;;2.07;;
3683;SDS011;1858;48.716;9.648;2022-11-15T15:38:20;6.83;;;2.67;;
3683;SDS011;1858;48.716;9.648;2022-11-15T15:40:49;4.30;;;3.23;;
3683;SDS011;1858;48.716;9.648;2022-11-15T15:43:17;5.30;;;2.07;;
3683;SDS011;1858;48.716;9.648;2022-11-15T15:48:37;4.77;;;1.70;;
3683;SDS011;1858;48.716;9.648;2022-11-15T15:51:06;3.90;;;1.67;;
3683;SDS011;1858;48.716;9.648;2022-11-15T15:53:35;3.27;;;2.00;;
3683;SDS011;1858;48.716;9.648;2022-11-15T15:56:03;4.67;;;1.90;;
3683;SDS011;1858;48.716;9.648;2022-11-15T16:01:22;4.10;;;1.57;;
3683;SDS011;1858;48.716;9.648;2022-11-15T16:03:51;3.23;;;1.20;;
3683;SDS011;1858;48.716;9.648;2022-11-15T16:06:38;4.90;;;1.97;;
3683;SDS011;1858;48.716;9.648;2022-11-15T16:09:14;2.63;;;1.17;;
3683;SDS011;1858;48.716;9.648;2022-11-15T16:11:45;4.17;;;1.87;;
3683;SDS011;1858;48.716;9.648;2022-11-15T16:14:14;7.00;;;3.10;;
3683;SDS011;1858;48.716;9.648;2022-11-15T16:16:42;4.53;;;2.47;;
3683;SDS011;1858;48.716;9.648;2022-11-15T16:19:11;3.63;;;2.73;;
3683;SDS011;1858;48.716;9.648;2022-11-15T16:21:39;8.33;;;3.80;;
3683;SDS011;1858;48.716;9.648;2022-11-15T16:24:08;11.60;;;3.70;;
3683;SDS011;1858;48.716;9.648;2022-11-15T16:26:36;5.13;;;2.90;;
3683;SDS011;1858;48.716;9.648;2022-11-15T16:29:05;7.33;;;4.33;;
3683;SDS011;1858;48.716;9.648;2022-11-15T16:31:35;7.60;;;4.33;;
3683;SDS011;1858;48.716;9.648;2022-11-15T16:34:04;6.10;;;3.00;;
3683;SDS011;1858;48.716;9.648;2022-11-15T16:36:33;5.83;;;2.90;;
3683;SDS011;1858;48.716;9.648;2022-11-15T16:39:10;11.93;;;4.33;;
3683;SDS011;1858;48.716;9.648;2022-11-15T16:41:58;8.43;;;3.77;;
3683;SDS011;1858;48.716;9.648;2022-11-15T16:44:27;5.23;;;2.90;;
3683;SDS011;1858;48.716;9.648;2022-11-15T16:46:55;11.73;;;3.50;;
3683;SDS011;1858;48.716;9.648;2022-11-15T16:49:24;5.20;;;3.03;;
3683;SDS011;1858;48.716;9.648;2022-11-15T16:51:52;5.93;;;2.60;;
3683;SDS011;1858;48.716;9.648;2022-11-15T16:54:20;3.67;;;2.40;;
3683;SDS011;1858;48.716;9.648;2022-11-15T16:56:49;8.70;;;3.73;;
3683;SDS011;1858;48.716;9.648;2022-11-15T17:02:09;10.47;;;3.50;;
3683;SDS011;1858;48.716;9.648;2022-11-15T17:04:36;10.67;;;3.67;;
3683;SDS011;1858;48.716;9.648;2022-11-15T17:07:05;4.63;;;2.60;;
3683;SDS011;1858;48.716;9.648;2022-11-15T17:09:36;4.40;;;2.10;;
3683;SDS011;1858;48.716;9.648;2022-11-15T17:12:04;4.90;;;2.67;;
3683;SDS011;1858;48.716;9.648;2022-11-15T17:14:33;7.00;;;2.77;;
3683;SDS011;1858;48.716;9.648;2022-11-15T17:19:52;10.50;;;3.17;;
3683;SDS011;1858;48.716;9.648;2022-11-15T17:22:20;6.00;;;3.37;;
3683;SDS011;1858;48.716;9.648;2022-11-15T17:24:50;11.30;;;3.43;;
3683;SDS011;1858;48.716;9.648;2022-11-15T17:27:18;8.00;;;3.87;;
3683;SDS011;1858;48.716;9.648;2022-11-15T17:29:47;6.03;;;4.23;;
3683;SDS011;1858;48.716;9.648;2022-11-15T17:32:15;8.23;;;3.30;;
3683;SDS011;1858;48.716;9.648;2022-11-15T17:34:44;8.90;;;3.40;;
3683;SDS011;1858;48.716;9.648;2022-11-15T17:37:12;10.77;;;4.93;;
3683;SDS011;1858;48.716;9.648;2022-11-15T17:39:41;9.47;;;4.17;;
3683;SDS011;1858;48.716;9.648;2022-11-15T17:42:09;12.70;;;4.17;;
3683;SDS011;1858;48.716;9.648;2022-11-15T17:44:37;8.80;;;3.00;;
3683;SDS011;1858;48.716;9.648;2022-11-15T17:47:06;8.80;;;3.47;;
3683;SDS011;1858;48.716;9.648;2022-11-15T17:49:34;7.20;;;4.00;;
3683;SDS011;1858;48.716;9.648;2022-11-15T17:52:04;6.90;;;3.27;;
3683;SDS011;1858;48.716;9.648;2022-11-15T17:54:33;5.47;;;2.90;;
3683;SDS011;1858;48.716;9.648;2022-11-15T17:57:02;7.00;;;2.60;;
3683;SDS011;1858;48.716;9.648;2022-11-15T17:59:34;6.93;;;2.57;;
3683;SDS011;1858;48.716;9.648;2022-11-15T18:02:02;5.10;;;2.80;;
3683;SDS011;1858;48.716;9.648;2022-11-15T18:04:32;9.63;;;4.77;;
3683;SDS011;1858;48.716;9.648;2022-11-15T18:07:00;7.50;;;3.90;;
3683;SDS011;1858;48.716;9.648;2022-11-15T18:09:28;6.00;;;3.40;;
3683;SDS011;1858;48.716;9.648;2022-11-15T18:12:05;4.33;;;2.73;;
3683;SDS011;1858;48.716;9.648;2022-11-15T18:14:32;6.40;;;4.17;;
3683;SDS011;1858;48.716;9.648;2022-11-15T18:17:01;4.70;;;2.50;;
3683;SDS011;1858;48.716;9.648;2022-11-15T18:19:29;5.90;;;2.10;;
3683;SDS011;1858;48.716;9.648;2022-11-15T18:21:58;3.73;;;2.50;;
3683;SDS011;1858;48.716;9.648;2022-11-15T18:24:31;4.30;;;2.47;;
3683;SDS011;1858;48.716;9.648;2022-11-15T18:27:19;6.67;;;2.87;;
3683;SDS011;1858;48.716;9.648;2022-11-15T18:29:47;10.70;;;3.33;;
3683;SDS011;1858;48.716;9.648;2022-11-15T18:32:16;5.50;;;3.60;;
3683;SDS011;1858;48.716;9.648;2022-11-15T18:34:44;5.40;;;2.73;;
3683;SDS011;1858;48.716;9.648;2022-11-15T18:37:21;5.23;;;2.60;;
3683;SDS011;1858;48.716;9.648;2022-11-15T18:39:50;5.23;;;3.47;;
3683;SDS011;1858;48.716;9.648;2022-11-15T18:42:19;6.27;;;3.83;;
3683;SDS011;1858;48.716;9.648;2022-11-15T18:44:47;4.10;;;2.87;;
3683;SDS011;1858;48.716;9.648;2022-11-15T18:47:16;4.63;;;2.20;;
3683;SDS011;1858;48.716;9.648;2022-11-15T18:49:44;6.47;;;2.67;;